createdAt,value
2022-10-19T00:01:09.498Z,2.42
2022-10-19T00:03:36.765Z,2.65
2022-10-19T00:06:11.982Z,2.30
2022-10-19T00:08:38.980Z,2.38
2022-10-19T00:11:06.000Z,2.42
2022-10-19T00:13:32.721Z,2.33
2022-10-19T00:16:01.218Z,2.72
2022-10-19T00:18:28.038Z,2.47
2022-10-19T00:21:03.635Z,2.70
2022-10-19T00:23:30.524Z,2.28
2022-10-19T00:25:57.793Z,2.85
2022-10-19T00:28:25.006Z,3.10
2022-10-19T00:30:51.946Z,3.08
2022-10-19T00:33:23.540Z,1.77
2022-10-19T00:35:52.883Z,2.78
2022-10-19T00:38:21.192Z,2.63
2022-10-19T00:40:48.983Z,2.30
2022-10-19T00:43:17.950Z,2.85
2022-10-19T00:45:44.876Z,2.60
2022-10-19T00:48:15.608Z,3.20
2022-10-19T00:50:45.492Z,2.78
2022-10-19T00:53:12.376Z,2.42
2022-10-19T00:55:41.135Z,2.90
2022-10-19T00:58:08.903Z,2.95
2022-10-19T01:00:36.492Z,2.10
2022-10-19T01:03:04.633Z,2.80
2022-10-19T01:05:32.905Z,3.22
2022-10-19T01:08:01.946Z,2.75
2022-10-19T01:10:40.565Z,2.85
2022-10-19T01:13:18.591Z,2.33
2022-10-19T01:15:54.314Z,3.03
2022-10-19T01:18:27.427Z,2.60
2022-10-19T01:21:10.791Z,2.08
2022-10-19T01:24:10.058Z,2.58
2022-10-19T01:27:15.459Z,2.88
2022-10-19T01:29:57.144Z,3.90
2022-10-19T01:32:30.501Z,2.78
2022-10-19T01:35:04.666Z,2.47
2022-10-19T01:37:38.143Z,2.58
2022-10-19T01:40:10.514Z,2.25
2022-10-19T01:42:45.811Z,2.33
2022-10-19T01:45:19.026Z,2.25
2022-10-19T01:47:52.151Z,2.33
2022-10-19T01:50:24.797Z,2.58
2022-10-19T01:52:53.506Z,2.35
2022-10-19T01:55:21.755Z,3.47
2022-10-19T01:57:55.442Z,2.80
2022-10-19T02:00:25.483Z,2.63
2022-10-19T02:02:54.982Z,2.60
2022-10-19T02:05:27.948Z,2.15
2022-10-19T02:08:00.019Z,2.72
2022-10-19T02:10:29.480Z,2.67
2022-10-19T02:12:58.563Z,4.97
2022-10-19T02:15:30.225Z,3.47
2022-10-19T02:18:00.218Z,2.85
2022-10-19T02:20:28.559Z,2.83
2022-10-19T02:22:55.550Z,3.90
2022-10-19T02:25:23.231Z,2.95
2022-10-19T02:27:52.673Z,3.08
2022-10-19T02:30:20.532Z,2.78
2022-10-19T02:32:49.989Z,3.25
2022-10-19T02:35:17.299Z,2.90
2022-10-19T02:37:44.551Z,2.38
2022-10-19T02:40:12.349Z,2.50
2022-10-19T02:42:43.933Z,2.75
2022-10-19T02:45:16.753Z,2.20
2022-10-19T02:47:48.068Z,3.33
2022-10-19T02:50:18.732Z,4.40
2022-10-19T02:52:45.539Z,2.33
2022-10-19T02:55:12.384Z,2.95
2022-10-19T02:57:39.145Z,2.40
2022-10-19T03:00:08.633Z,2.92
2022-10-19T03:02:35.701Z,3.88
2022-10-19T03:05:02.527Z,3.35
2022-10-19T03:07:31.134Z,3.83
2022-10-19T03:09:58.145Z,3.15
2022-10-19T03:12:25.014Z,3.20
2022-10-19T03:14:51.845Z,4.63
2022-10-19T03:17:18.637Z,7.90
2022-10-19T03:19:46.143Z,3.45
2022-10-19T03:22:14.025Z,3.65
2022-10-19T03:24:42.287Z,3.03
2022-10-19T03:27:09.305Z,2.50
2022-10-19T03:29:36.297Z,2.75
2022-10-19T03:32:03.341Z,3.47
2022-10-19T03:34:30.308Z,3.35
2022-10-19T03:36:59.332Z,3.28
2022-10-19T03:39:26.746Z,3.42
2022-10-19T03:41:54.967Z,2.92
2022-10-19T03:44:21.815Z,3.67
2022-10-19T03:46:48.615Z,3.22
2022-10-19T03:49:15.913Z,5.53
2022-10-19T03:51:42.740Z,3.30
2022-10-19T03:54:13.772Z,4.20
2022-10-19T03:56:41.012Z,4.82
2022-10-19T03:59:14.157Z,3.90
2022-10-19T04:01:43.798Z,3.05
2022-10-19T04:06:40.348Z,3.22
2022-10-19T04:09:08.221Z,4.10
2022-10-19T04:11:36.219Z,3.53
2022-10-19T04:14:03.860Z,3.78
2022-10-19T04:16:32.878Z,4.78
2022-10-19T04:19:00.133Z,3.33
2022-10-19T04:21:28.703Z,3.92
2022-10-19T04:23:59.017Z,3.20
2022-10-19T04:26:26.352Z,4.25
2022-10-19T04:28:53.568Z,3.63
2022-10-19T04:31:20.391Z,3.35
2022-10-19T04:33:48.619Z,3.53
2022-10-19T04:36:15.893Z,2.88
2022-10-19T04:38:42.900Z,3.67
2022-10-19T04:41:11.707Z,3.47
2022-10-19T04:43:38.995Z,3.17
2022-10-19T04:46:07.800Z,2.90
2022-10-19T04:48:35.704Z,3.08
2022-10-19T04:51:05.173Z,3.65
2022-10-19T04:53:32.468Z,2.92
2022-10-19T04:55:59.273Z,3.33
2022-10-19T04:58:27.174Z,3.28
2022-10-19T05:00:54.181Z,2.97
2022-10-19T05:03:21.043Z,2.88
2022-10-19T05:05:47.881Z,2.83
2022-10-19T05:08:16.018Z,2.72
2022-10-19T05:10:45.559Z,2.50
2022-10-19T05:13:14.648Z,3.67
2022-10-19T05:15:41.387Z,2.80
2022-10-19T05:18:08.971Z,2.80
2022-10-19T05:20:35.996Z,3.17
2022-10-19T05:23:06.423Z,4.50
2022-10-19T05:25:35.848Z,2.65
2022-10-19T05:28:05.829Z,3.13
2022-10-19T05:30:32.839Z,2.58
2022-10-19T05:32:59.619Z,2.92
2022-10-19T05:35:26.821Z,3.05
2022-10-19T05:37:54.675Z,3.63
2022-10-19T05:40:21.781Z,3.03
2022-10-19T05:42:50.070Z,3.45
2022-10-19T05:45:17.137Z,2.97
2022-10-19T05:47:43.970Z,3.55
2022-10-19T05:50:10.905Z,3.42
2022-10-19T05:52:37.651Z,2.97
2022-10-19T05:55:05.698Z,2.97
2022-10-19T05:57:33.553Z,3.47
2022-10-19T06:00:02.388Z,3.38
2022-10-19T06:02:38.564Z,4.07
2022-10-19T06:05:06.452Z,3.40
2022-10-19T06:07:33.717Z,3.38
2022-10-19T06:10:00.668Z,3.30
2022-10-19T06:12:27.477Z,3.00
2022-10-19T06:14:54.274Z,3.10
2022-10-19T06:17:22.691Z,4.65
2022-10-19T06:19:49.467Z,3.00
2022-10-19T06:22:16.376Z,3.10
2022-10-19T06:24:43.202Z,3.50
2022-10-19T06:27:09.951Z,3.55
2022-10-19T06:29:36.896Z,3.88
2022-10-19T06:32:04.142Z,2.70
2022-10-19T06:34:32.537Z,3.78
2022-10-19T06:36:59.437Z,3.25
2022-10-19T06:39:26.169Z,2.90
2022-10-19T06:41:52.969Z,2.75
2022-10-19T06:44:20.121Z,2.97
2022-10-19T06:46:47.034Z,2.97
2022-10-19T06:49:14.794Z,3.38
2022-10-19T06:51:43.086Z,2.83
2022-10-19T06:54:09.887Z,2.60
2022-10-19T06:56:36.681Z,3.17
2022-10-19T06:59:03.793Z,2.50
2022-10-19T07:01:30.934Z,2.90
2022-10-19T07:03:57.772Z,3.08
2022-10-19T07:06:26.934Z,3.13
2022-10-19T07:08:55.257Z,3.38
2022-10-19T07:11:22.746Z,3.92
2022-10-19T07:13:50.114Z,2.70
2022-10-19T07:16:21.048Z,3.70
2022-10-19T07:18:49.431Z,3.22
2022-10-19T07:21:16.734Z,3.10
2022-10-19T07:23:45.587Z,2.65
2022-10-19T07:26:16.479Z,2.70
2022-10-19T07:28:46.021Z,2.50
2022-10-19T07:33:40.972Z,2.83
2022-10-19T07:36:10.256Z,2.10
2022-10-19T07:38:37.644Z,3.10
2022-10-19T07:41:07.012Z,3.45
2022-10-19T07:43:35.845Z,3.58
2022-10-19T07:46:04.608Z,2.97
2022-10-19T07:48:31.624Z,3.40
2022-10-19T07:51:00.628Z,2.97
2022-10-19T07:53:27.587Z,3.53
2022-10-19T07:55:54.485Z,3.25
2022-10-19T07:58:21.460Z,3.17
2022-10-19T08:00:49.642Z,3.22
2022-10-19T08:03:57.485Z,3.05
2022-10-19T08:06:05.301Z,3.33
2022-10-19T08:08:32.748Z,3.47
2022-10-19T08:11:07.403Z,3.85
2022-10-19T08:13:34.387Z,3.65
2022-10-19T08:16:03.500Z,4.18
2022-10-19T08:21:02.414Z,2.80
2022-10-19T08:23:29.117Z,3.92
2022-10-19T08:25:58.286Z,3.50
2022-10-19T08:28:25.136Z,3.47
2022-10-19T08:30:57.972Z,3.80
2022-10-19T08:33:26.624Z,3.53
2022-10-19T08:35:56.715Z,2.95
2022-10-19T08:38:23.694Z,3.15
2022-10-19T08:40:50.590Z,3.28
2022-10-19T08:43:24.204Z,2.42
2022-10-19T08:45:59.340Z,4.40
2022-10-19T08:48:30.167Z,4.35
2022-10-19T08:50:58.895Z,3.15
2022-10-19T08:53:33.603Z,3.00
2022-10-19T08:56:14.904Z,2.80
2022-10-19T08:59:00.128Z,2.90
2022-10-19T09:01:37.815Z,3.13
2022-10-19T09:04:12.598Z,3.22
2022-10-19T09:06:50.017Z,3.38
2022-10-19T09:09:19.604Z,3.05
2022-10-19T09:11:49.275Z,4.25
2022-10-19T09:14:21.309Z,3.78
2022-10-19T09:16:48.196Z,3.20
2022-10-19T09:19:23.058Z,3.58
2022-10-19T09:21:54.719Z,4.30
2022-10-19T09:24:30.105Z,3.80
2022-10-19T09:26:59.664Z,2.90
2022-10-19T09:29:33.058Z,3.28
2022-10-19T09:32:03.406Z,2.97
2022-10-19T09:34:34.837Z,2.30
2022-10-19T09:37:02.277Z,2.78
2022-10-19T09:39:30.587Z,2.55
2022-10-19T09:41:59.753Z,2.97
2022-10-19T09:44:27.620Z,2.70
2022-10-19T09:47:02.450Z,2.75
2022-10-19T09:49:42.102Z,2.55
2022-10-19T09:52:37.330Z,2.95
2022-10-19T09:55:07.630Z,2.83
2022-10-19T09:57:42.399Z,5.03
2022-10-19T10:00:18.283Z,3.33
2022-10-19T10:02:49.863Z,4.95
2022-10-19T10:05:19.464Z,3.65
2022-10-19T10:07:46.347Z,5.13
2022-10-19T10:10:21.558Z,6.15
2022-10-19T10:12:48.745Z,2.90
2022-10-19T10:15:21.165Z,6.85
2022-10-19T10:17:49.477Z,8.00
2022-10-19T10:20:23.803Z,4.93
2022-10-19T10:22:57.486Z,6.10
2022-10-19T10:25:30.530Z,3.50
2022-10-19T10:28:01.283Z,6.00
2022-10-19T10:30:34.377Z,4.55
2022-10-19T10:33:09.345Z,7.03
2022-10-19T10:35:53.659Z,7.50
2022-10-19T10:38:24.105Z,5.03
2022-10-19T10:40:52.694Z,8.43
2022-10-19T10:43:23.839Z,8.68
2022-10-19T10:45:53.248Z,4.25
2022-10-19T10:48:28.706Z,3.92
2022-10-19T10:50:57.933Z,3.42
2022-10-19T10:53:38.950Z,4.80
2022-10-19T10:56:19.625Z,5.10
2022-10-19T10:58:50.328Z,6.75
2022-10-19T11:01:22.001Z,2.83
2022-10-19T11:03:55.788Z,2.78
2022-10-19T11:06:25.937Z,3.25
2022-10-19T11:09:05.089Z,3.88
2022-10-19T11:11:36.678Z,3.28
2022-10-19T11:14:22.291Z,3.10
2022-10-19T11:16:52.799Z,3.83
2022-10-19T11:19:23.584Z,6.78
2022-10-19T11:22:00.552Z,4.03
2022-10-19T11:24:35.655Z,3.25
2022-10-19T11:29:54.299Z,5.30
2022-10-19T11:32:33.902Z,3.72
2022-10-19T11:35:26.162Z,3.38
2022-10-19T11:38:19.422Z,2.75
2022-10-19T11:43:53.418Z,3.25
2022-10-19T11:46:25.995Z,3.33
2022-10-19T11:49:03.222Z,3.67
2022-10-19T11:51:39.607Z,3.55
2022-10-19T11:54:39.490Z,3.08
2022-10-19T11:57:12.320Z,3.42
2022-10-19T12:00:03.675Z,3.45
2022-10-19T12:03:04.976Z,3.03
2022-10-19T12:05:39.194Z,3.38
2022-10-19T12:08:21.482Z,2.80
2022-10-19T12:11:03.439Z,3.25
2022-10-19T12:13:36.542Z,3.75
2022-10-19T12:16:05.972Z,3.13
2022-10-19T12:21:09.982Z,3.97
2022-10-19T12:23:39.251Z,3.78
2022-10-19T12:26:10.241Z,3.35
2022-10-19T12:28:40.468Z,4.40
2022-10-19T12:31:09.536Z,3.60
2022-10-19T12:33:47.371Z,2.50
2022-10-19T12:36:30.785Z,3.83
2022-10-19T12:39:07.031Z,2.97
2022-10-19T12:41:44.401Z,3.25
2022-10-19T12:44:56.226Z,3.65
2022-10-19T12:47:26.126Z,4.25
2022-10-19T12:49:55.096Z,3.15
2022-10-19T12:52:37.263Z,3.20
2022-10-19T12:55:22.941Z,4.50
2022-10-19T12:57:59.441Z,4.00
2022-10-19T13:00:28.883Z,3.55
2022-10-19T13:05:27.840Z,2.60
2022-10-19T13:07:55.001Z,3.55
2022-10-19T13:10:24.524Z,3.97
2022-10-19T13:15:56.193Z,2.78
2022-10-19T13:19:06.198Z,3.35
2022-10-19T13:21:51.862Z,3.08
2022-10-19T13:27:26.409Z,5.13
2022-10-19T13:29:54.661Z,3.58
2022-10-19T13:32:39.541Z,3.70
2022-10-19T13:35:29.428Z,4.20
2022-10-19T13:38:26.583Z,4.70
2022-10-19T13:41:01.425Z,5.18
2022-10-19T13:43:31.220Z,4.07
2022-10-19T13:46:06.248Z,6.90
2022-10-19T13:48:44.567Z,9.02
2022-10-19T13:51:23.124Z,9.05
2022-10-19T13:53:57.773Z,3.63
2022-10-19T13:59:32.328Z,5.10
2022-10-19T14:02:34.577Z,5.07
2022-10-19T14:05:14.867Z,3.45
2022-10-19T14:07:53.223Z,3.72
2022-10-19T14:10:28.216Z,5.55
2022-10-19T14:13:02.268Z,4.45
2022-10-19T14:15:32.202Z,4.53
2022-10-19T14:18:03.689Z,4.55
2022-10-19T14:20:36.322Z,4.32
2022-10-19T14:23:19.242Z,4.78
2022-10-19T14:25:51.697Z,3.88
2022-10-19T14:28:18.496Z,4.20
2022-10-19T14:30:55.117Z,4.00
2022-10-19T14:33:25.590Z,3.38
2022-10-19T14:35:53.540Z,3.92
2022-10-19T14:38:25.831Z,3.50
2022-10-19T14:40:52.659Z,4.00
2022-10-19T14:43:23.068Z,5.03
2022-10-19T14:46:20.014Z,3.17
2022-10-19T14:48:50.108Z,3.20
2022-10-19T14:51:28.557Z,3.45
2022-10-19T14:54:00.081Z,4.05
2022-10-19T14:56:35.033Z,3.17
2022-10-19T14:59:06.163Z,3.53
2022-10-19T15:01:34.217Z,3.97
2022-10-19T15:04:02.788Z,3.40
2022-10-19T15:06:32.624Z,4.95
2022-10-19T15:09:02.567Z,3.60
2022-10-19T15:11:31.813Z,3.70
2022-10-19T15:14:02.738Z,4.07
2022-10-19T15:16:33.216Z,4.95
2022-10-19T15:19:05.212Z,4.28
2022-10-19T15:21:33.605Z,5.85
2022-10-19T15:24:08.441Z,5.88
2022-10-19T15:26:35.424Z,5.65
2022-10-19T15:29:10.580Z,6.82
2022-10-19T15:31:37.525Z,6.88
2022-10-19T15:34:05.771Z,7.00
2022-10-19T15:36:33.126Z,7.50
2022-10-19T15:39:17.494Z,8.27
2022-10-19T15:41:49.175Z,4.32
2022-10-19T15:44:32.158Z,4.15
2022-10-19T15:47:29.345Z,5.38
2022-10-19T15:50:00.649Z,4.80
2022-10-19T15:52:29.608Z,4.53
2022-10-19T15:54:58.253Z,3.97
2022-10-19T15:57:28.968Z,4.65
2022-10-19T15:59:57.459Z,4.32
2022-10-19T16:02:27.007Z,3.78
2022-10-19T16:07:26.837Z,4.03
2022-10-19T16:09:54.849Z,4.05
2022-10-19T16:12:21.958Z,6.45
2022-10-19T16:14:49.214Z,4.40
2022-10-19T16:17:16.386Z,4.63
2022-10-19T16:19:43.372Z,4.22
2022-10-19T16:22:10.304Z,4.30
2022-10-19T16:24:38.835Z,5.72
2022-10-19T16:27:06.824Z,4.40
2022-10-19T16:29:33.899Z,3.92
2022-10-19T16:32:01.493Z,4.43
2022-10-19T16:34:28.433Z,5.60
2022-10-19T16:36:55.238Z,4.25
2022-10-19T16:39:22.090Z,5.30
2022-10-19T16:41:50.232Z,4.88
2022-10-19T16:44:17.317Z,5.28
2022-10-19T16:46:44.034Z,5.35
2022-10-19T16:49:10.839Z,6.53
2022-10-19T16:51:38.748Z,6.13
2022-10-19T16:54:08.854Z,5.85
2022-10-19T16:56:36.824Z,6.32
2022-10-19T16:59:06.370Z,6.60
2022-10-19T17:01:35.074Z,7.40
2022-10-19T17:04:01.910Z,6.88
2022-10-19T17:06:29.117Z,6.47
2022-10-19T17:11:44.562Z,7.68
2022-10-19T17:14:13.195Z,7.35
2022-10-19T17:16:40.566Z,8.60
2022-10-19T17:19:08.691Z,7.78
2022-10-19T17:21:42.274Z,9.85
2022-10-19T17:24:17.143Z,7.38
2022-10-19T17:26:49.862Z,7.18
2022-10-19T17:29:19.040Z,7.20
2022-10-19T17:31:46.344Z,7.25
2022-10-19T17:34:13.718Z,6.30
2022-10-19T17:36:44.480Z,7.15
2022-10-19T17:39:13.527Z,5.93
2022-10-19T17:41:40.357Z,7.25
2022-10-19T17:44:07.193Z,5.72
2022-10-19T17:46:35.835Z,4.97
2022-10-19T17:49:03.175Z,5.72
2022-10-19T17:51:31.323Z,6.10
2022-10-19T17:54:00.279Z,7.28
2022-10-19T17:56:27.712Z,5.88
2022-10-19T17:58:56.239Z,6.18
2022-10-19T18:01:23.818Z,5.55
2022-10-19T18:03:52.570Z,4.45
2022-10-19T18:06:21.902Z,4.05
2022-10-19T18:08:51.272Z,5.15
2022-10-19T18:11:20.559Z,4.55
2022-10-19T18:13:48.067Z,5.10
2022-10-19T18:16:17.570Z,4.93
2022-10-19T18:18:46.571Z,5.13
2022-10-19T18:21:16.850Z,5.43
2022-10-19T18:23:43.943Z,5.28
2022-10-19T18:26:13.954Z,5.25
2022-10-19T18:28:40.858Z,6.57
2022-10-19T18:31:08.906Z,5.28
2022-10-19T18:33:36.109Z,5.35
2022-10-19T18:36:03.412Z,5.72
2022-10-19T18:38:31.804Z,5.72
2022-10-19T18:41:01.613Z,5.13
2022-10-19T18:43:28.412Z,4.38
2022-10-19T18:45:57.953Z,5.25
2022-10-19T18:48:27.038Z,3.75
2022-10-19T18:50:54.373Z,5.15
2022-10-19T18:53:21.703Z,3.88
2022-10-19T18:55:58.238Z,3.92
2022-10-19T18:58:25.607Z,3.70
2022-10-19T19:01:03.390Z,4.50
2022-10-19T19:03:30.365Z,4.13
2022-10-19T19:05:59.365Z,4.72
2022-10-19T19:08:26.288Z,4.57
2022-10-19T19:10:53.463Z,4.45
2022-10-19T19:13:22.548Z,4.55
2022-10-19T19:15:57.522Z,5.13
2022-10-19T19:18:24.378Z,4.65
2022-10-19T19:20:51.362Z,5.28
2022-10-19T19:23:18.233Z,4.35
2022-10-19T19:25:45.377Z,5.00
2022-10-19T19:28:12.222Z,5.07
2022-10-19T19:30:41.961Z,5.60
2022-10-19T19:33:09.080Z,5.57
2022-10-19T19:35:42.497Z,4.38
2022-10-19T19:38:10.015Z,5.10
2022-10-19T19:40:39.696Z,4.43
2022-10-19T19:43:06.541Z,5.07
2022-10-19T19:45:33.347Z,5.75
2022-10-19T19:48:02.697Z,5.03
2022-10-19T19:50:30.215Z,4.13
2022-10-19T19:52:58.105Z,4.45
2022-10-19T19:55:25.431Z,4.10
2022-10-19T19:57:54.564Z,4.18
2022-10-19T20:00:22.340Z,4.10
2022-10-19T20:02:52.787Z,4.40
2022-10-19T20:05:21.762Z,4.57
2022-10-19T20:07:48.908Z,5.50
2022-10-19T20:10:16.267Z,4.72
2022-10-19T20:12:43.816Z,5.55
2022-10-19T20:15:11.625Z,4.75
2022-10-19T20:17:38.955Z,3.83
2022-10-19T20:20:08.375Z,4.53
2022-10-19T20:22:36.888Z,6.13
2022-10-19T20:25:04.616Z,4.97
2022-10-19T20:27:34.702Z,4.85
2022-10-19T20:30:01.846Z,4.28
2022-10-19T20:32:29.646Z,4.88
2022-10-19T20:34:56.438Z,4.20
2022-10-19T20:37:23.714Z,4.32
2022-10-19T20:39:52.031Z,4.53
2022-10-19T20:42:19.079Z,4.15
2022-10-19T20:44:45.961Z,4.63
2022-10-19T20:47:12.793Z,4.63
2022-10-19T20:49:40.912Z,4.82
2022-10-19T20:52:07.728Z,4.57
2022-10-19T20:54:35.789Z,4.88
2022-10-19T20:57:04.127Z,4.72
2022-10-19T20:59:32.918Z,4.40
2022-10-19T21:01:59.868Z,4.72
2022-10-19T21:04:26.898Z,4.30
2022-10-19T21:06:53.697Z,5.50
2022-10-19T21:09:22.636Z,4.95
2022-10-19T21:11:50.776Z,4.07
2022-10-19T21:14:25.279Z,4.90
2022-10-19T21:16:56.528Z,4.80
2022-10-19T21:19:25.484Z,4.35
2022-10-19T21:21:55.517Z,5.05
2022-10-19T21:24:23.671Z,5.43
2022-10-19T21:29:23.630Z,4.90
2022-10-19T21:31:53.228Z,4.57
2022-10-19T21:36:48.016Z,5.47
2022-10-19T21:39:15.186Z,4.20
2022-10-19T21:41:42.011Z,5.38
2022-10-19T21:44:08.880Z,4.68
2022-10-19T21:46:37.013Z,4.90
2022-10-19T21:49:03.802Z,5.22
2022-10-19T21:51:34.937Z,4.55
2022-10-19T21:54:02.264Z,4.70
2022-10-19T21:56:29.489Z,4.25
2022-10-19T21:58:56.464Z,6.57
2022-10-19T22:01:25.949Z,6.68
2022-10-19T22:03:57.334Z,4.38
2022-10-19T22:06:25.063Z,4.35
2022-10-19T22:08:52.679Z,5.15
2022-10-19T22:11:19.935Z,4.28
2022-10-19T22:13:46.827Z,5.13
2022-10-19T22:16:15.844Z,5.50
2022-10-19T22:18:43.304Z,4.25
2022-10-19T22:21:13.668Z,5.53
2022-10-19T22:23:42.195Z,4.75
2022-10-19T22:26:13.919Z,5.80
2022-10-19T22:28:40.793Z,7.45
2022-10-19T22:31:07.861Z,4.85
2022-10-19T22:33:35.567Z,4.90
2022-10-19T22:36:05.090Z,4.90
2022-10-19T22:38:34.738Z,5.30
2022-10-19T22:43:28.531Z,5.15
2022-10-19T22:45:55.295Z,5.88
2022-10-19T22:48:22.033Z,4.88
2022-10-19T22:50:51.988Z,4.90
2022-10-19T22:53:18.748Z,4.60
2022-10-19T22:55:47.038Z,4.63
2022-10-19T22:58:14.120Z,5.40
2022-10-19T23:00:41.304Z,5.60
2022-10-19T23:03:08.351Z,5.38
2022-10-19T23:05:35.420Z,5.20
2022-10-19T23:08:02.134Z,5.10
2022-10-19T23:10:28.961Z,5.30
2022-10-19T23:12:57.067Z,5.72
2022-10-19T23:15:24.117Z,5.00
2022-10-19T23:17:51.017Z,4.28
2022-10-19T23:20:17.883Z,5.55
2022-10-19T23:22:45.096Z,4.80
2022-10-19T23:25:12.143Z,5.47
2022-10-19T23:27:39.277Z,6.25
2022-10-19T23:30:08.862Z,5.15
2022-10-19T23:32:35.742Z,5.60
2022-10-19T23:35:02.577Z,5.40
2022-10-19T23:37:29.454Z,5.88
2022-10-19T23:39:56.239Z,6.10
2022-10-19T23:42:23.062Z,5.50
2022-10-19T23:44:50.116Z,5.15
2022-10-19T23:47:18.519Z,5.43
2022-10-19T23:49:45.322Z,5.90
2022-10-19T23:52:12.047Z,5.85
2022-10-19T23:54:38.851Z,6.18
2022-10-19T23:57:05.800Z,5.78
2022-10-19T23:59:33.031Z,6.57
